Terminal Aerodrome Forecast
Issued by NWS Flagstaff, AZ

Home | Current Version | Previous Version | Text Only | Print | Product List | Glossary On
Versions: 1 2 3 4 5 6 7 8 9 10 11 12 13 14 15 16 17 18 19
000
FTUS45 KFGZ 020500
TAFINW
TAF
KINW 020530Z 0206/0306 14011KT P6SM SCT120 BKN200
     FM020800 VRB05KT P6SM SCT200
     FM022000 VRB06KT P6SM BKN120 PROB30 0223/0302 VRB15G25KT 5SM
      -TSRA BKN080CB
     FM030330 27012KT P6SM BKN120=

USA.gov is the U.S. government's official web portal to all federal, state and local government web resources and services.